Alexander 3 — SW6137 — position and weather

sailwx.info

Track history (hours):
 
Tides and Currents Weather Stations Pressure Air Temp Water Temp Dewpoint Dewpoint Depression Visibility Wind Speed Wind Dir Waves Ship Positions

Alexander 3

Last reported at 2014-Sep-17 11:33 UTC. Time now 2014-Sep-17 23:42 UTC.
Position N 37°57' E 023°38'.

Length 38 m; draft 5.6 m.

Type: Tug. MMSI: 240733000.

Date/timePositionNaut miles runAvg speedWind from/ knotsBaromVisibWave heightAir tempDewpointWater temp
2014-Sep-17 11:33N 37°57' E 023°38'2 2.0
2014-Sep-17 10:33N 37°57' E 023°36'2 2.0
2014-Sep-17 09:33N 37°57' E 023°38'2 2.0
2014-Sep-17 08:33N 37°57' E 023°36'3 2.7
2014-Sep-17 07:33N 37°58' E 023°33'4 4.1
2014-Sep-17 06:32N 38°01' E 023°35'2 2.4
2014-Sep-17 05:32N 38°00' E 023°33'5 5.1
2014-Sep-17 04:33N 37°56' E 023°37'1 0.6
2014-Sep-17 03:33N 37°56' E 023°37'0 0.0
2014-Sep-17 02:33N 37°56' E 023°37'0 0.0
2014-Sep-17 01:33N 37°56' E 023°37'0 0.0
2014-Sep-17 00:33N 37°56' E 023°37'0 0.0
2014-Sep-16 23:33N 37°56' E 023°37'0 0.0
2014-Sep-16 22:33N 37°56' E 023°37'0 0.0
2014-Sep-16 21:33N 37°56' E 023°37'2 1.9
2014-Sep-16 20:33N 37°57' E 023°35'2 1.8
2014-Sep-16 19:33N 37°55' E 023°35'2 2.0
2014-Sep-16 18:33N 37°57' E 023°36'0 0.4
2014-Sep-16 17:33N 37°57' E 023°36'0 0.0
2014-Sep-16 16:33N 37°57' E 023°36'0 0.0
2014-Sep-16 15:34N 37°57' E 023°36'0 0.0
2014-Sep-16 14:33N 37°57' E 023°36'0 0.0
2014-Sep-16 13:33N 37°57' E 023°36'0 0.0
2014-Sep-16 12:34N 37°57' E 023°36'0 0.0
2014-Sep-16 11:33N 37°57' E 023°36'0 0.0
2014-Sep-16 10:33N 37°57' E 023°36'1 0.6
2014-Sep-16 09:33N 37°57' E 023°36'1 0.7
2014-Sep-16 08:33N 37°57' E 023°36'0 0.0
2014-Sep-16 07:33N 37°57' E 023°36'0 0.0
2014-Sep-16 06:33N 37°57' E 023°36'0 0.0
2014-Sep-16 05:33N 37°57' E 023°36'0 0.3
2014-Sep-16 04:33N 37°57' E 023°36'2 1.5
2014-Sep-16 03:33N 37°56' E 023°37'2 0.1
2014-Sep-15 10:33N 37°57' E 023°36'2 1.6
2014-Sep-15 09:33N 37°58' E 023°34'0 0.0
2014-Sep-15 08:33N 37°58' E 023°34'0 0.0
2014-Sep-15 07:32N 37°58' E 023°34'1 1.3
2014-Sep-15 06:33N 37°57' E 023°35'1 1.3
2014-Sep-15 05:33N 37°56' E 023°35'2 1.6
2014-Sep-15 04:33N 37°56' E 023°37'0 0.0
2014-Sep-15 03:33N 37°56' E 023°37'0 0.0
2014-Sep-15 02:33N 37°56' E 023°37'0 0.0
2014-Sep-15 01:33N 37°56' E 023°37'0 0.0
2014-Sep-15 00:33N 37°56' E 023°37'0 0.0
2014-Sep-14 23:33N 37°56' E 023°37'0 0.0
2014-Sep-14 22:33N 37°56' E 023°37'0 0.0
2014-Sep-14 21:33N 37°56' E 023°37'0 0.0
2014-Sep-14 20:33N 37°56' E 023°37'2 1.8
2014-Sep-14 19:33N 37°57' E 023°35'0 0.5
2014-Sep-14 18:33N 37°57' E 023°36'0 0.4
2014-Sep-14 17:33N 37°57' E 023°36'0 0.0
2014-Sep-14 16:33N 37°57' E 023°36'0 0.0
2014-Sep-14 15:33N 37°57' E 023°36'0 0.0
2014-Sep-14 14:33N 37°57' E 023°36'0 0.0
2014-Sep-14 13:33N 37°57' E 023°36'0 0.0
2014-Sep-14 12:33N 37°57' E 023°36'0 0.3
2014-Sep-14 11:33N 37°57' E 023°36'0 0.3
2014-Sep-14 10:33N 37°57' E 023°36'0 0.0
2014-Sep-14 09:33N 37°57' E 023°36'0 0.0
2014-Sep-14 08:33N 37°57' E 023°36'0 0.0
2014-Sep-14 07:33N 37°57' E 023°36'0 0.0
2014-Sep-14 06:33N 37°57' E 023°36'0 0.2
2014-Sep-14 05:17N 37°57' E 023°36'2 2.3
2014-Sep-14 04:33N 37°56' E 023°35'2 0.1
2014-Sep-12 18:33N 37°56' E 023°37'8 7.8
2014-Sep-12 17:33N 37°53' E 023°29'7 5.2
2014-Sep-12 16:08N 37°58' E 023°23'1 2.1
2014-Sep-12 15:32N 37°58' E 023°24'0 0.0
2014-Sep-12 14:31N 37°58' E 023°24'0 0.0
2014-Sep-12 13:32N 37°58' E 023°24'0 0.0
2014-Sep-12 12:29N 37°58' E 023°24'0 0.0
2014-Sep-12 11:31N 37°58' E 023°24'0 0.0
2014-Sep-12 10:31N 37°58' E 023°24'0 0.0
2014-Sep-12 09:24N 37°58' E 023°24'0 0.0
2014-Sep-12 08:28N 37°58' E 023°24'0 0.0
2014-Sep-12 07:31N 37°58' E 023°24'0 0.0
2014-Sep-12 06:29N 37°58' E 023°24'0 0.0
2014-Sep-12 05:33N 37°58' E 023°24'0 0.0
2014-Sep-12 04:30N 37°58' E 023°24'0 0.0
2014-Sep-12 03:33N 37°58' E 023°24'0 0.0
2014-Sep-12 02:33N 37°58' E 023°24'0 0.0
2014-Sep-12 01:33N 37°58' E 023°24'0 0.0
2014-Sep-12 00:33N 37°58' E 023°24'0 0.0
2014-Sep-11 23:31N 37°58' E 023°24'0 0.0
2014-Sep-11 22:33N 37°58' E 023°24'0 0.0
2014-Sep-11 21:33N 37°58' E 023°24'0 0.0
2014-Sep-11 20:28N 37°58' E 023°24'0 0.0
2014-Sep-11 19:32N 37°58' E 023°24'0 0.0
2014-Sep-11 18:33N 37°58' E 023°24'0 0.0
2014-Sep-11 17:33N 37°58' E 023°24'0 0.0
2014-Sep-11 16:19N 37°58' E 023°24'0 0.0
2014-Sep-11 15:31N 37°58' E 023°24'0 0.0
2014-Sep-11 14:32N 37°58' E 023°24'0 0.0
2014-Sep-11 13:33N 37°58' E 023°24'0 0.0
2014-Sep-11 12:27N 37°58' E 023°24'1 1.2
2014-Sep-11 11:33N 37°58' E 023°23'0 0.1
2014-Sep-11 10:08N 37°58' E 023°23'0 0.2
2014-Sep-11 09:30N 37°58' E 023°23'0 0.2
2014-Sep-11 08:30N 37°58' E 023°23'0 0.4
2014-Sep-11 07:33N 37°58' E 023°23'7 5.1
2014-Sep-11 06:06N 37°58' E 023°33'1 1.7
2014-Sep-11 05:33N 37°58' E 023°34'2 1.8
2014-Sep-11 04:33N 37°57' E 023°36'1 1.4
2014-Sep-11 03:33N 37°56' E 023°37'0 0.0
2014-Sep-10 11:14N 37°56' E 023°37'1 2.2
2014-Sep-10 10:33N 37°57' E 023°36'2 1.6
2014-Sep-10 09:33N 37°56' E 023°37'0 0.0
2014-Sep-10 08:33N 37°56' E 023°37'3 2.6
2014-Sep-10 07:33N 37°55' E 023°35'8 8.2
2014-Sep-10 06:33N 37°53' E 023°24'6 5.4
2014-Sep-10 05:32N 37°58' E 023°23'5 4.5
2014-Sep-10 04:30N 37°54' E 023°23'7 7.3
2014-Sep-10 03:33N 37°54' E 023°32'4 0.4
2014-Sep-09 17:33N 37°57' E 023°36'2 1.9
2014-Sep-09 16:33N 37°55' E 023°35'3 2.6
2014-Sep-09 15:33N 37°57' E 023°37'0 0.0
2014-Sep-09 14:33N 37°57' E 023°37'0 0.0
2014-Sep-09 13:33N 37°57' E 023°37'0 0.0
2014-Sep-09 12:33N 37°57' E 023°37'0 0.0
2014-Sep-09 11:33N 37°57' E 023°37'0 0.0
2014-Sep-09 10:33N 37°57' E 023°37'0 0.0
2014-Sep-09 09:33N 37°57' E 023°37'0 0.0
2014-Sep-09 08:33N 37°57' E 023°37'0 0.0
2014-Sep-09 07:33N 37°57' E 023°37'0 0.0
2014-Sep-09 06:33N 37°57' E 023°37'0 0.0
2014-Sep-09 05:33N 37°57' E 023°37'1 0.9
2014-Sep-09 04:33N 37°57' E 023°36'2 1.8
2014-Sep-09 03:33N 37°56' E 023°38'3 0.2
2014-Sep-08 10:33N 37°57' E 023°34'4 3.5
2014-Sep-08 09:18N 38°01' E 023°36'2 2.1
2014-Sep-08 08:21N 38°00' E 023°34'4 4.6
2014-Sep-08 07:32N 37°57' E 023°36'0 0.0
2014-Sep-08 06:33N 37°57' E 023°36'0 0.0
2014-Sep-08 05:32N 37°57' E 023°36'1 0.5
2014-Sep-08 04:33N 37°57' E 023°36'2 1.2
2014-Sep-08 03:18N 37°56' E 023°37'0 0.0
2014-Sep-07 20:13N 37°56' E 023°37'2 2.7
2014-Sep-07 19:33N 37°57' E 023°35'1 0.7
2014-Sep-07 18:24N 37°57' E 023°36'  
Track history (hours):
 
Tides and Currents Weather Stations Pressure Air Temp Water Temp Dewpoint Dewpoint Depression Visibility Wind Speed Wind Dir Waves Ship Positions

Alexander 3

Last reported at 2014-Sep-17 11:33 UTC. Time now 2014-Sep-17 23:42 UTC.
Position N 37°57' E 023°38'.

Length 38 m; draft 5.6 m.

Type: Tug. MMSI: 240733000.

Date/timePositionNaut miles runAvg speedWind from/ knotsBaromVisibWave heightAir tempDewpointWater temp
2014-Sep-17 11:33N 37°57' E 023°38'2 2.0
2014-Sep-17 10:33N 37°57' E 023°36'2 2.0
2014-Sep-17 09:33N 37°57' E 023°38'2 2.0
2014-Sep-17 08:33N 37°57' E 023°36'3 2.7
2014-Sep-17 07:33N 37°58' E 023°33'4 4.1
2014-Sep-17 06:32N 38°01' E 023°35'2 2.4
2014-Sep-17 05:32N 38°00' E 023°33'5 5.1
2014-Sep-17 04:33N 37°56' E 023°37'1 0.6
2014-Sep-17 03:33N 37°56' E 023°37'0 0.0
2014-Sep-17 02:33N 37°56' E 023°37'0 0.0
2014-Sep-17 01:33N 37°56' E 023°37'0 0.0
2014-Sep-17 00:33N 37°56' E 023°37'0 0.0
2014-Sep-16 23:33N 37°56' E 023°37'0 0.0
2014-Sep-16 22:33N 37°56' E 023°37'0 0.0
2014-Sep-16 21:33N 37°56' E 023°37'2 1.9
2014-Sep-16 20:33N 37°57' E 023°35'2 1.8
2014-Sep-16 19:33N 37°55' E 023°35'2 2.0
2014-Sep-16 18:33N 37°57' E 023°36'0 0.4
2014-Sep-16 17:33N 37°57' E 023°36'0 0.0
2014-Sep-16 16:33N 37°57' E 023°36'0 0.0
2014-Sep-16 15:34N 37°57' E 023°36'0 0.0
2014-Sep-16 14:33N 37°57' E 023°36'0 0.0
2014-Sep-16 13:33N 37°57' E 023°36'0 0.0
2014-Sep-16 12:34N 37°57' E 023°36'0 0.0
2014-Sep-16 11:33N 37°57' E 023°36'0 0.0
2014-Sep-16 10:33N 37°57' E 023°36'1 0.6
2014-Sep-16 09:33N 37°57' E 023°36'1 0.7
2014-Sep-16 08:33N 37°57' E 023°36'0 0.0
2014-Sep-16 07:33N 37°57' E 023°36'0 0.0
2014-Sep-16 06:33N 37°57' E 023°36'0 0.0
2014-Sep-16 05:33N 37°57' E 023°36'0 0.3
2014-Sep-16 04:33N 37°57' E 023°36'2 1.5
2014-Sep-16 03:33N 37°56' E 023°37'2 0.1
2014-Sep-15 10:33N 37°57' E 023°36'2 1.6
2014-Sep-15 09:33N 37°58' E 023°34'0 0.0
2014-Sep-15 08:33N 37°58' E 023°34'0 0.0
2014-Sep-15 07:32N 37°58' E 023°34'1 1.3
2014-Sep-15 06:33N 37°57' E 023°35'1 1.3
2014-Sep-15 05:33N 37°56' E 023°35'2 1.6
2014-Sep-15 04:33N 37°56' E 023°37'0 0.0
2014-Sep-15 03:33N 37°56' E 023°37'0 0.0
2014-Sep-15 02:33N 37°56' E 023°37'0 0.0
2014-Sep-15 01:33N 37°56' E 023°37'0 0.0
2014-Sep-15 00:33N 37°56' E 023°37'0 0.0
2014-Sep-14 23:33N 37°56' E 023°37'0 0.0
2014-Sep-14 22:33N 37°56' E 023°37'0 0.0
2014-Sep-14 21:33N 37°56' E 023°37'0 0.0
2014-Sep-14 20:33N 37°56' E 023°37'2 1.8
2014-Sep-14 19:33N 37°57' E 023°35'0 0.5
2014-Sep-14 18:33N 37°57' E 023°36'0 0.4
2014-Sep-14 17:33N 37°57' E 023°36'0 0.0
2014-Sep-14 16:33N 37°57' E 023°36'0 0.0
2014-Sep-14 15:33N 37°57' E 023°36'0 0.0
2014-Sep-14 14:33N 37°57' E 023°36'0 0.0
2014-Sep-14 13:33N 37°57' E 023°36'0 0.0
2014-Sep-14 12:33N 37°57' E 023°36'0 0.3
2014-Sep-14 11:33N 37°57' E 023°36'0 0.3
2014-Sep-14 10:33N 37°57' E 023°36'0 0.0
2014-Sep-14 09:33N 37°57' E 023°36'0 0.0
2014-Sep-14 08:33N 37°57' E 023°36'0 0.0
2014-Sep-14 07:33N 37°57' E 023°36'0 0.0
2014-Sep-14 06:33N 37°57' E 023°36'0 0.2
2014-Sep-14 05:17N 37°57' E 023°36'2 2.3
2014-Sep-14 04:33N 37°56' E 023°35'2 0.1
2014-Sep-12 18:33N 37°56' E 023°37'8 7.8
2014-Sep-12 17:33N 37°53' E 023°29'7 5.2
2014-Sep-12 16:08N 37°58' E 023°23'1 2.1
2014-Sep-12 15:32N 37°58' E 023°24'0 0.0
2014-Sep-12 14:31N 37°58' E 023°24'0 0.0
2014-Sep-12 13:32N 37°58' E 023°24'0 0.0
2014-Sep-12 12:29N 37°58' E 023°24'0 0.0
2014-Sep-12 11:31N 37°58' E 023°24'0 0.0
2014-Sep-12 10:31N 37°58' E 023°24'0 0.0
2014-Sep-12 09:24N 37°58' E 023°24'0 0.0
2014-Sep-12 08:28N 37°58' E 023°24'0 0.0
2014-Sep-12 07:31N 37°58' E 023°24'0 0.0
2014-Sep-12 06:29N 37°58' E 023°24'0 0.0
2014-Sep-12 05:33N 37°58' E 023°24'0 0.0
2014-Sep-12 04:30N 37°58' E 023°24'0 0.0
2014-Sep-12 03:33N 37°58' E 023°24'0 0.0
2014-Sep-12 02:33N 37°58' E 023°24'0 0.0
2014-Sep-12 01:33N 37°58' E 023°24'0 0.0
2014-Sep-12 00:33N 37°58' E 023°24'0 0.0
2014-Sep-11 23:31N 37°58' E 023°24'0 0.0
2014-Sep-11 22:33N 37°58' E 023°24'0 0.0
2014-Sep-11 21:33N 37°58' E 023°24'0 0.0
2014-Sep-11 20:28N 37°58' E 023°24'0 0.0
2014-Sep-11 19:32N 37°58' E 023°24'0 0.0
2014-Sep-11 18:33N 37°58' E 023°24'0 0.0
2014-Sep-11 17:33N 37°58' E 023°24'0 0.0
2014-Sep-11 16:19N 37°58' E 023°24'0 0.0
2014-Sep-11 15:31N 37°58' E 023°24'0 0.0
2014-Sep-11 14:32N 37°58' E 023°24'0 0.0
2014-Sep-11 13:33N 37°58' E 023°24'0 0.0
2014-Sep-11 12:27N 37°58' E 023°24'1 1.2
2014-Sep-11 11:33N 37°58' E 023°23'0 0.1
2014-Sep-11 10:08N 37°58' E 023°23'0 0.2
2014-Sep-11 09:30N 37°58' E 023°23'0 0.2
2014-Sep-11 08:30N 37°58' E 023°23'0 0.4
2014-Sep-11 07:33N 37°58' E 023°23'7 5.1
2014-Sep-11 06:06N 37°58' E 023°33'1 1.7
2014-Sep-11 05:33N 37°58' E 023°34'2 1.8
2014-Sep-11 04:33N 37°57' E 023°36'1 1.4
2014-Sep-11 03:33N 37°56' E 023°37'0 0.0
2014-Sep-10 11:14N 37°56' E 023°37'1 2.2
2014-Sep-10 10:33N 37°57' E 023°36'2 1.6
2014-Sep-10 09:33N 37°56' E 023°37'0 0.0
2014-Sep-10 08:33N 37°56' E 023°37'3 2.6
2014-Sep-10 07:33N 37°55' E 023°35'8 8.2
2014-Sep-10 06:33N 37°53' E 023°24'6 5.4
2014-Sep-10 05:32N 37°58' E 023°23'5 4.5
2014-Sep-10 04:30N 37°54' E 023°23'7 7.3
2014-Sep-10 03:33N 37°54' E 023°32'4 0.4
2014-Sep-09 17:33N 37°57' E 023°36'2 1.9
2014-Sep-09 16:33N 37°55' E 023°35'3 2.6
2014-Sep-09 15:33N 37°57' E 023°37'0 0.0
2014-Sep-09 14:33N 37°57' E 023°37'0 0.0
2014-Sep-09 13:33N 37°57' E 023°37'0 0.0
2014-Sep-09 12:33N 37°57' E 023°37'0 0.0
2014-Sep-09 11:33N 37°57' E 023°37'0 0.0
2014-Sep-09 10:33N 37°57' E 023°37'0 0.0
2014-Sep-09 09:33N 37°57' E 023°37'0 0.0
2014-Sep-09 08:33N 37°57' E 023°37'0 0.0
2014-Sep-09 07:33N 37°57' E 023°37'0 0.0
2014-Sep-09 06:33N 37°57' E 023°37'0 0.0
2014-Sep-09 05:33N 37°57' E 023°37'1 0.9
2014-Sep-09 04:33N 37°57' E 023°36'2 1.8
2014-Sep-09 03:33N 37°56' E 023°38'3 0.2
2014-Sep-08 10:33N 37°57' E 023°34'4 3.5
2014-Sep-08 09:18N 38°01' E 023°36'2 2.1
2014-Sep-08 08:21N 38°00' E 023°34'4 4.6
2014-Sep-08 07:32N 37°57' E 023°36'0 0.0
2014-Sep-08 06:33N 37°57' E 023°36'0 0.0
2014-Sep-08 05:32N 37°57' E 023°36'1 0.5
2014-Sep-08 04:33N 37°57' E 023°36'2 1.2
2014-Sep-08 03:18N 37°56' E 023°37'0 0.0
2014-Sep-07 20:13N 37°56' E 023°37'2 2.7
2014-Sep-07 19:33N 37°57' E 023°35'1 0.7
2014-Sep-07 18:24N 37°57' E 023°36'  

Dump ship's entire track history